sensor_id;sensor_type;location;lat;lon;timestamp;temperature;humidity
80258;DHT22;69565;37.974;23.708;2023-05-29T00:01:45;25.60;38.60
80258;DHT22;69565;37.974;23.708;2023-05-29T00:04:11;25.70;38.80
80258;DHT22;69565;37.974;23.708;2023-05-29T00:06:37;25.60;38.70
80258;DHT22;69565;37.974;23.708;2023-05-29T00:09:03;25.60;38.70
80258;DHT22;69565;37.974;23.708;2023-05-29T00:11:29;25.60;38.70
80258;DHT22;69565;37.974;23.708;2023-05-29T00:13:55;25.60;38.70
80258;DHT22;69565;37.974;23.708;2023-05-29T00:16:22;25.60;38.80
80258;DHT22;69565;37.974;23.708;2023-05-29T00:18:49;25.60;38.80
80258;DHT22;69565;37.974;23.708;2023-05-29T00:21:15;25.60;38.80
80258;DHT22;69565;37.974;23.708;2023-05-29T00:23:42;25.60;38.80
80258;DHT22;69565;37.974;23.708;2023-05-29T00:26:08;25.60;38.80
80258;DHT22;69565;37.974;23.708;2023-05-29T00:28:35;25.60;38.90
80258;DHT22;69565;37.974;23.708;2023-05-29T00:31:01;25.60;38.90
80258;DHT22;69565;37.974;23.708;2023-05-29T00:33:27;25.60;38.90
80258;DHT22;69565;37.974;23.708;2023-05-29T00:35:53;25.60;39.00
80258;DHT22;69565;37.974;23.708;2023-05-29T00:38:19;25.60;39.00
80258;DHT22;69565;37.974;23.708;2023-05-29T00:40:45;25.60;39.10
80258;DHT22;69565;37.974;23.708;2023-05-29T00:43:11;25.50;39.10
80258;DHT22;69565;37.974;23.708;2023-05-29T00:45:36;25.50;39.10
80258;DHT22;69565;37.974;23.708;2023-05-29T00:48:03;25.50;39.20
80258;DHT22;69565;37.974;23.708;2023-05-29T00:50:30;25.50;40.20
80258;DHT22;69565;37.974;23.708;2023-05-29T00:52:57;25.50;39.20
80258;DHT22;69565;37.974;23.708;2023-05-29T00:55:24;25.50;39.20
80258;DHT22;69565;37.974;23.708;2023-05-29T00:57:49;25.50;39.20
80258;DHT22;69565;37.974;23.708;2023-05-29T01:00:16;25.50;39.30
80258;DHT22;69565;37.974;23.708;2023-05-29T01:02:43;25.40;39.20
80258;DHT22;69565;37.974;23.708;2023-05-29T01:05:14;25.50;39.30
80258;DHT22;69565;37.974;23.708;2023-05-29T01:07:41;25.50;39.30
80258;DHT22;69565;37.974;23.708;2023-05-29T01:10:08;25.50;39.50
80258;DHT22;69565;37.974;23.708;2023-05-29T01:12:50;25.50;39.40
80258;DHT22;69565;37.974;23.708;2023-05-29T01:15:41;25.50;39.50
80258;DHT22;69565;37.974;23.708;2023-05-29T01:29:04;25.40;39.60
80258;DHT22;69565;37.974;23.708;2023-05-29T01:31:33;25.40;39.60
80258;DHT22;69565;37.974;23.708;2023-05-29T01:34:00;25.40;39.70
80258;DHT22;69565;37.974;23.708;2023-05-29T01:36:26;25.40;39.70
80258;DHT22;69565;37.974;23.708;2023-05-29T01:38:54;25.40;39.70
80258;DHT22;69565;37.974;23.708;2023-05-29T01:41:21;25.40;39.80
80258;DHT22;69565;37.974;23.708;2023-05-29T01:43:49;25.30;39.70
80258;DHT22;69565;37.974;23.708;2023-05-29T01:46:16;25.30;39.70
80258;DHT22;69565;37.974;23.708;2023-05-29T01:48:42;25.30;39.70
80258;DHT22;69565;37.974;23.708;2023-05-29T01:51:09;25.30;39.70
80258;DHT22;69565;37.974;23.708;2023-05-29T01:53:42;25.30;39.80
80258;DHT22;69565;37.974;23.708;2023-05-29T01:56:08;25.30;39.80
80258;DHT22;69565;37.974;23.708;2023-05-29T01:58:35;25.30;39.80
80258;DHT22;69565;37.974;23.708;2023-05-29T02:01:02;25.30;39.90
80258;DHT22;69565;37.974;23.708;2023-05-29T02:03:32;25.30;39.80
80258;DHT22;69565;37.974;23.708;2023-05-29T02:05:58;25.30;39.80
80258;DHT22;69565;37.974;23.708;2023-05-29T02:08:24;25.30;39.90
80258;DHT22;69565;37.974;23.708;2023-05-29T02:10:50;25.30;39.90
80258;DHT22;69565;37.974;23.708;2023-05-29T02:13:16;25.30;39.90
80258;DHT22;69565;37.974;23.708;2023-05-29T02:15:42;25.30;39.90
80258;DHT22;69565;37.974;23.708;2023-05-29T02:18:12;25.30;39.90
80258;DHT22;69565;37.974;23.708;2023-05-29T02:20:39;25.30;40.00
80258;DHT22;69565;37.974;23.708;2023-05-29T02:23:04;25.30;40.00
80258;DHT22;69565;37.974;23.708;2023-05-29T02:25:30;25.30;40.00
80258;DHT22;69565;37.974;23.708;2023-05-29T02:27:56;25.30;40.10
80258;DHT22;69565;37.974;23.708;2023-05-29T02:30:22;25.20;40.10
80258;DHT22;69565;37.974;23.708;2023-05-29T02:32:47;25.20;40.20
80258;DHT22;69565;37.974;23.708;2023-05-29T02:35:13;25.20;40.10
80258;DHT22;69565;37.974;23.708;2023-05-29T02:37:41;25.20;40.00
80258;DHT22;69565;37.974;23.708;2023-05-29T02:40:07;25.20;40.00
80258;DHT22;69565;37.974;23.708;2023-05-29T02:42:36;25.20;40.10
80258;DHT22;69565;37.974;23.708;2023-05-29T02:45:02;25.20;40.20
80258;DHT22;69565;37.974;23.708;2023-05-29T02:47:28;25.20;40.30
80258;DHT22;69565;37.974;23.708;2023-05-29T02:49:53;25.20;40.30
80258;DHT22;69565;37.974;23.708;2023-05-29T02:52:19;25.20;40.30
80258;DHT22;69565;37.974;23.708;2023-05-29T02:54:45;25.20;40.30
80258;DHT22;69565;37.974;23.708;2023-05-29T02:57:10;25.20;41.30
80258;DHT22;69565;37.974;23.708;2023-05-29T02:59:36;25.20;40.30
80258;DHT22;69565;37.974;23.708;2023-05-29T03:02:02;25.20;40.30
80258;DHT22;69565;37.974;23.708;2023-05-29T03:04:28;25.20;40.30
80258;DHT22;69565;37.974;23.708;2023-05-29T03:06:54;25.20;40.30
80258;DHT22;69565;37.974;23.708;2023-05-29T03:09:20;25.20;40.30
80258;DHT22;69565;37.974;23.708;2023-05-29T03:11:45;25.20;40.30
80258;DHT22;69565;37.974;23.708;2023-05-29T03:14:13;25.20;40.30
80258;DHT22;69565;37.974;23.708;2023-05-29T03:16:39;25.20;40.30
80258;DHT22;69565;37.974;23.708;2023-05-29T03:19:06;25.20;40.40
80258;DHT22;69565;37.974;23.708;2023-05-29T03:21:33;25.20;40.30
80258;DHT22;69565;37.974;23.708;2023-05-29T03:23:59;25.20;40.30
80258;DHT22;69565;37.974;23.708;2023-05-29T03:26:26;25.20;40.30
80258;DHT22;69565;37.974;23.708;2023-05-29T03:28:52;25.20;40.30
80258;DHT22;69565;37.974;23.708;2023-05-29T03:31:17;25.20;40.30
80258;DHT22;69565;37.974;23.708;2023-05-29T03:33:43;25.20;40.30
80258;DHT22;69565;37.974;23.708;2023-05-29T03:36:09;25.20;40.30
80258;DHT22;69565;37.974;23.708;2023-05-29T03:38:34;25.20;40.30
80258;DHT22;69565;37.974;23.708;2023-05-29T03:41:00;25.20;40.30
80258;DHT22;69565;37.974;23.708;2023-05-29T03:43:26;25.20;40.40
80258;DHT22;69565;37.974;23.708;2023-05-29T03:45:51;25.20;40.40
80258;DHT22;69565;37.974;23.708;2023-05-29T03:48:17;25.20;40.50
80258;DHT22;69565;37.974;23.708;2023-05-29T03:50:45;25.20;40.60
80258;DHT22;69565;37.974;23.708;2023-05-29T03:53:11;25.20;40.60
80258;DHT22;69565;37.974;23.708;2023-05-29T03:55:36;25.20;40.60
80258;DHT22;69565;37.974;23.708;2023-05-29T03:58:02;25.30;40.60
80258;DHT22;69565;37.974;23.708;2023-05-29T04:00:28;25.30;40.50
80258;DHT22;69565;37.974;23.708;2023-05-29T04:02:55;25.30;40.50
80258;DHT22;69565;37.974;23.708;2023-05-29T04:05:21;25.30;40.40
80258;DHT22;69565;37.974;23.708;2023-05-29T04:07:47;25.40;40.50
80258;DHT22;69565;37.974;23.708;2023-05-29T04:10:13;25.40;40.40
80258;DHT22;69565;37.974;23.708;2023-05-29T04:12:38;25.50;40.50
80258;DHT22;69565;37.974;23.708;2023-05-29T04:15:05;25.50;40.50
80258;DHT22;69565;37.974;23.708;2023-05-29T04:17:31;25.50;40.60
80258;DHT22;69565;37.974;23.708;2023-05-29T04:19:57;25.40;40.70
80258;DHT22;69565;37.974;23.708;2023-05-29T04:22:22;25.50;40.90
80258;DHT22;69565;37.974;23.708;2023-05-29T04:24:49;25.50;41.60
80258;DHT22;69565;37.974;23.708;2023-05-29T04:27:15;25.60;42.10
80258;DHT22;69565;37.974;23.708;2023-05-29T04:29:43;25.60;43.20
80258;DHT22;69565;37.974;23.708;2023-05-29T04:32:09;25.60;43.70
80258;DHT22;69565;37.974;23.708;2023-05-29T04:34:37;25.70;43.70
80258;DHT22;69565;37.974;23.708;2023-05-29T04:37:05;25.80;43.70
80258;DHT22;69565;37.974;23.708;2023-05-29T04:39:31;25.80;43.40
80258;DHT22;69565;37.974;23.708;2023-05-29T04:41:58;25.90;43.20
80258;DHT22;69565;37.974;23.708;2023-05-29T04:44:27;25.90;42.90
80258;DHT22;69565;37.974;23.708;2023-05-29T04:46:54;26.00;42.60
80258;DHT22;69565;37.974;23.708;2023-05-29T04:49:22;26.10;42.40
80258;DHT22;69565;37.974;23.708;2023-05-29T04:51:48;26.20;42.10
80258;DHT22;69565;37.974;23.708;2023-05-29T04:54:13;26.20;41.70
80258;DHT22;69565;37.974;23.708;2023-05-29T04:56:39;26.40;41.60
80258;DHT22;69565;37.974;23.708;2023-05-29T04:59:07;26.40;41.20
80258;DHT22;69565;37.974;23.708;2023-05-29T05:01:34;26.50;41.00
80258;DHT22;69565;37.974;23.708;2023-05-29T05:04:00;26.60;40.90
80258;DHT22;69565;37.974;23.708;2023-05-29T05:06:26;26.70;40.60
80258;DHT22;69565;37.974;23.708;2023-05-29T05:08:53;26.70;40.30
80258;DHT22;69565;37.974;23.708;2023-05-29T05:11:19;26.90;40.30
80258;DHT22;69565;37.974;23.708;2023-05-29T05:13:46;26.90;40.00
80258;DHT22;69565;37.974;23.708;2023-05-29T05:16:11;27.00;39.80
80258;DHT22;69565;37.974;23.708;2023-05-29T05:18:38;27.10;39.60
80258;DHT22;69565;37.974;23.708;2023-05-29T05:21:04;27.20;39.40
80258;DHT22;69565;37.974;23.708;2023-05-29T05:23:30;27.30;39.10
80258;DHT22;69565;37.974;23.708;2023-05-29T05:25:56;27.40;38.90
80258;DHT22;69565;37.974;23.708;2023-05-29T05:28:22;27.50;38.80
80258;DHT22;69565;37.974;23.708;2023-05-29T05:30:47;27.60;39.10
80258;DHT22;69565;37.974;23.708;2023-05-29T05:33:13;27.70;38.30
80258;DHT22;69565;37.974;23.708;2023-05-29T05:35:39;27.80;38.10
80258;DHT22;69565;37.974;23.708;2023-05-29T05:38:05;27.90;37.90
80258;DHT22;69565;37.974;23.708;2023-05-29T05:40:31;27.90;37.60
80258;DHT22;69565;37.974;23.708;2023-05-29T05:42:57;28.00;37.50
80258;DHT22;69565;37.974;23.708;2023-05-29T05:45:23;28.10;37.40
80258;DHT22;69565;37.974;23.708;2023-05-29T05:47:49;28.10;37.20
80258;DHT22;69565;37.974;23.708;2023-05-29T05:50:15;28.20;37.10
80258;DHT22;69565;37.974;23.708;2023-05-29T05:52:41;28.20;36.90
80258;DHT22;69565;37.974;23.708;2023-05-29T05:55:07;28.20;36.80
80258;DHT22;69565;37.974;23.708;2023-05-29T05:57:33;28.20;36.80
80258;DHT22;69565;37.974;23.708;2023-05-29T06:00:08;28.20;36.80
80258;DHT22;69565;37.974;23.708;2023-05-29T06:02:38;28.20;36.70
80258;DHT22;69565;37.974;23.708;2023-05-29T06:05:04;28.10;36.70
80258;DHT22;69565;37.974;23.708;2023-05-29T06:07:32;28.10;36.70
80258;DHT22;69565;37.974;23.708;2023-05-29T06:09:59;28.10;36.80
80258;DHT22;69565;37.974;23.708;2023-05-29T06:12:25;28.00;36.80
80258;DHT22;69565;37.974;23.708;2023-05-29T06:14:51;28.00;36.90
80258;DHT22;69565;37.974;23.708;2023-05-29T06:17:16;28.00;36.90
80258;DHT22;69565;37.974;23.708;2023-05-29T06:19:42;27.90;37.00
80258;DHT22;69565;37.974;23.708;2023-05-29T06:22:16;27.90;37.20
80258;DHT22;69565;37.974;23.708;2023-05-29T06:24:41;27.90;37.30
80258;DHT22;69565;37.974;23.708;2023-05-29T06:27:07;27.80;37.30
80258;DHT22;69565;37.974;23.708;2023-05-29T06:29:34;27.80;37.30
80258;DHT22;69565;37.974;23.708;2023-05-29T06:31:59;27.80;37.20
80258;DHT22;69565;37.974;23.708;2023-05-29T06:34:25;28.00;37.10
80258;DHT22;69565;37.974;23.708;2023-05-29T06:36:54;28.10;36.90
80258;DHT22;69565;37.974;23.708;2023-05-29T06:39:19;28.10;37.70
80258;DHT22;69565;37.974;23.708;2023-05-29T06:41:48;28.20;36.70
80258;DHT22;69565;37.974;23.708;2023-05-29T06:44:13;28.30;36.50
80258;DHT22;69565;37.974;23.708;2023-05-29T06:46:39;28.40;36.20
80258;DHT22;69565;37.974;23.708;2023-05-29T06:49:05;28.60;36.00
80258;DHT22;69565;37.974;23.708;2023-05-29T06:51:31;28.70;35.70
80258;DHT22;69565;37.974;23.708;2023-05-29T06:53:57;28.80;35.30
80258;DHT22;69565;37.974;23.708;2023-05-29T06:56:23;28.80;35.20
80258;DHT22;69565;37.974;23.708;2023-05-29T06:58:51;28.90;35.10
80258;DHT22;69565;37.974;23.708;2023-05-29T07:01:17;28.90;34.80
80258;DHT22;69565;37.974;23.708;2023-05-29T07:03:43;28.90;34.90
80258;DHT22;69565;37.974;23.708;2023-05-29T07:06:14;28.70;34.90
80258;DHT22;69565;37.974;23.708;2023-05-29T07:08:40;28.70;35.10
80258;DHT22;69565;37.974;23.708;2023-05-29T07:11:06;28.60;35.20
80258;DHT22;69565;37.974;23.708;2023-05-29T07:13:32;28.50;35.30
80258;DHT22;69565;37.974;23.708;2023-05-29T07:15:58;28.50;35.30
80258;DHT22;69565;37.974;23.708;2023-05-29T07:18:23;28.50;35.40
80258;DHT22;69565;37.974;23.708;2023-05-29T07:20:49;28.40;35.50
80258;DHT22;69565;37.974;23.708;2023-05-29T07:23:15;28.30;35.50
80258;DHT22;69565;37.974;23.708;2023-05-29T07:25:56;28.20;35.60
80258;DHT22;69565;37.974;23.708;2023-05-29T07:28:22;28.20;35.70
80258;DHT22;69565;37.974;23.708;2023-05-29T07:30:48;28.10;35.70
80258;DHT22;69565;37.974;23.708;2023-05-29T07:33:14;28.10;35.70
80258;DHT22;69565;37.974;23.708;2023-05-29T07:35:42;28.10;35.70
80258;DHT22;69565;37.974;23.708;2023-05-29T07:38:11;28.10;35.70
80258;DHT22;69565;37.974;23.708;2023-05-29T07:40:37;28.10;35.70
80258;DHT22;69565;37.974;23.708;2023-05-29T07:43:02;28.30;35.70
80258;DHT22;69565;37.974;23.708;2023-05-29T07:45:28;28.50;35.20
80258;DHT22;69565;37.974;23.708;2023-05-29T07:47:57;28.80;34.60
80258;DHT22;69565;37.974;23.708;2023-05-29T07:50:22;28.90;34.10
80258;DHT22;69565;37.974;23.708;2023-05-29T07:53:04;29.10;33.70
80258;DHT22;69565;37.974;23.708;2023-05-29T07:55:30;29.30;33.50
80258;DHT22;69565;37.974;23.708;2023-05-29T07:57:58;29.30;33.20
80258;DHT22;69565;37.974;23.708;2023-05-29T08:00:25;29.40;33.00
80258;DHT22;69565;37.974;23.708;2023-05-29T08:02:51;29.40;32.80
80258;DHT22;69565;37.974;23.708;2023-05-29T08:05:18;29.40;32.70
80258;DHT22;69565;37.974;23.708;2023-05-29T08:07:43;29.40;32.60
80258;DHT22;69565;37.974;23.708;2023-05-29T08:10:09;29.30;32.60
80258;DHT22;69565;37.974;23.708;2023-05-29T08:12:41;29.30;33.60
80258;DHT22;69565;37.974;23.708;2023-05-29T08:15:07;29.20;32.60
80258;DHT22;69565;37.974;23.708;2023-05-29T08:17:33;29.20;32.80
80258;DHT22;69565;37.974;23.708;2023-05-29T08:19:59;29.10;32.80
80258;DHT22;69565;37.974;23.708;2023-05-29T08:22:29;29.00;32.80
80258;DHT22;69565;37.974;23.708;2023-05-29T08:24:58;29.00;33.40
80258;DHT22;69565;37.974;23.708;2023-05-29T08:27:24;29.00;33.00
80258;DHT22;69565;37.974;23.708;2023-05-29T08:29:50;28.90;33.00
80258;DHT22;69565;37.974;23.708;2023-05-29T08:32:16;28.90;33.10
80258;DHT22;69565;37.974;23.708;2023-05-29T08:34:41;28.90;33.10
80258;DHT22;69565;37.974;23.708;2023-05-29T08:37:07;28.90;33.10
80258;DHT22;69565;37.974;23.708;2023-05-29T08:39:35;28.90;33.10
80258;DHT22;69565;37.974;23.708;2023-05-29T08:42:07;28.80;33.10
80258;DHT22;69565;37.974;23.708;2023-05-29T08:44:39;28.80;33.10
80258;DHT22;69565;37.974;23.708;2023-05-29T08:47:07;28.80;33.40
80258;DHT22;69565;37.974;23.708;2023-05-29T08:49:43;28.70;33.60
80258;DHT22;69565;37.974;23.708;2023-05-29T08:52:24;28.70;33.80
80258;DHT22;69565;37.974;23.708;2023-05-29T08:54:51;28.70;33.80
80258;DHT22;69565;37.974;23.708;2023-05-29T08:57:18;28.70;33.70
80258;DHT22;69565;37.974;23.708;2023-05-29T08:59:44;28.70;33.70
80258;DHT22;69565;37.974;23.708;2023-05-29T09:02:11;28.80;33.80
80258;DHT22;69565;37.974;23.708;2023-05-29T09:04:37;28.80;33.80
80258;DHT22;69565;37.974;23.708;2023-05-29T09:07:04;28.80;33.80
80258;DHT22;69565;37.974;23.708;2023-05-29T09:09:30;28.80;33.70
80258;DHT22;69565;37.974;23.708;2023-05-29T09:14:34;28.90;33.70
80258;DHT22;69565;37.974;23.708;2023-05-29T09:17:01;28.90;33.70
80258;DHT22;69565;37.974;23.708;2023-05-29T09:19:27;28.90;33.70
80258;DHT22;69565;37.974;23.708;2023-05-29T09:22:04;28.90;34.80
80258;DHT22;69565;37.974;23.708;2023-05-29T09:24:31;28.90;33.70
80258;DHT22;69565;37.974;23.708;2023-05-29T09:26:59;28.90;33.70
80258;DHT22;69565;37.974;23.708;2023-05-29T09:29:25;28.90;33.70
80258;DHT22;69565;37.974;23.708;2023-05-29T09:31:51;28.80;33.70
80258;DHT22;69565;37.974;23.708;2023-05-29T09:34:16;28.80;33.80
80258;DHT22;69565;37.974;23.708;2023-05-29T09:36:42;28.80;33.80
80258;DHT22;69565;37.974;23.708;2023-05-29T09:39:08;28.80;33.80
80258;DHT22;69565;37.974;23.708;2023-05-29T09:41:45;28.80;33.80
80258;DHT22;69565;37.974;23.708;2023-05-29T09:44:15;28.80;33.70
80258;DHT22;69565;37.974;23.708;2023-05-29T09:46:43;28.80;33.80
80258;DHT22;69565;37.974;23.708;2023-05-29T09:49:12;28.80;33.80
80258;DHT22;69565;37.974;23.708;2023-05-29T09:51:38;28.80;33.70
80258;DHT22;69565;37.974;23.708;2023-05-29T09:54:18;28.80;33.80
80258;DHT22;69565;37.974;23.708;2023-05-29T09:56:44;28.80;33.90
80258;DHT22;69565;37.974;23.708;2023-05-29T09:59:12;28.90;34.10
80258;DHT22;69565;37.974;23.708;2023-05-29T10:01:42;28.80;34.00
80258;DHT22;69565;37.974;23.708;2023-05-29T10:04:10;28.90;33.90
80258;DHT22;69565;37.974;23.708;2023-05-29T10:06:47;28.80;33.90
80258;DHT22;69565;37.974;23.708;2023-05-29T10:09:16;28.80;33.90
80258;DHT22;69565;37.974;23.708;2023-05-29T10:11:44;28.90;34.00
80258;DHT22;69565;37.974;23.708;2023-05-29T10:14:18;28.80;33.80
80258;DHT22;69565;37.974;23.708;2023-05-29T10:16:47;28.80;33.80
80258;DHT22;69565;37.974;23.708;2023-05-29T10:19:24;28.80;33.80
80258;DHT22;69565;37.974;23.708;2023-05-29T10:21:52;28.90;33.90
80258;DHT22;69565;37.974;23.708;2023-05-29T10:24:19;28.90;34.00
80258;DHT22;69565;37.974;23.708;2023-05-29T10:26:48;28.90;34.10
80258;DHT22;69565;37.974;23.708;2023-05-29T10:29:37;28.80;33.90
80258;DHT22;69565;37.974;23.708;2023-05-29T10:32:27;28.90;33.90
80258;DHT22;69565;37.974;23.708;2023-05-29T10:35:14;28.90;33.80
80258;DHT22;69565;37.974;23.708;2023-05-29T10:38:02;28.90;33.70
80258;DHT22;69565;37.974;23.708;2023-05-29T10:40:28;28.80;33.60
80258;DHT22;69565;37.974;23.708;2023-05-29T10:42:54;28.90;34.00
80258;DHT22;69565;37.974;23.708;2023-05-29T10:50:42;28.80;35.40
80258;DHT22;69565;37.974;23.708;2023-05-29T10:53:18;28.80;35.70
80258;DHT22;69565;37.974;23.708;2023-05-29T10:55:47;28.80;36.00
80258;DHT22;69565;37.974;23.708;2023-05-29T10:58:18;28.80;36.60
80258;DHT22;69565;37.974;23.708;2023-05-29T11:00:45;28.70;36.60
80258;DHT22;69565;37.974;23.708;2023-05-29T11:03:21;28.80;36.60
80258;DHT22;69565;37.974;23.708;2023-05-29T11:05:58;28.80;36.20
80258;DHT22;69565;37.974;23.708;2023-05-29T11:08:45;28.70;36.00
80258;DHT22;69565;37.974;23.708;2023-05-29T11:11:12;28.70;35.80
80258;DHT22;69565;37.974;23.708;2023-05-29T11:13:39;28.80;35.80
80258;DHT22;69565;37.974;23.708;2023-05-29T11:16:59;28.80;35.60
80258;DHT22;69565;37.974;23.708;2023-05-29T11:19:05;28.90;35.50
80258;DHT22;69565;37.974;23.708;2023-05-29T11:22:22;28.90;35.20
80258;DHT22;69565;37.974;23.708;2023-05-29T11:24:25;28.80;35.10
80258;DHT22;69565;37.974;23.708;2023-05-29T11:26:55;28.90;35.10
80258;DHT22;69565;37.974;23.708;2023-05-29T11:29:22;28.90;35.00
80258;DHT22;69565;37.974;23.708;2023-05-29T11:31:49;28.90;35.10
80258;DHT22;69565;37.974;23.708;2023-05-29T11:34:20;28.90;35.20
80258;DHT22;69565;37.974;23.708;2023-05-29T11:36:46;28.90;35.30
80258;DHT22;69565;37.974;23.708;2023-05-29T11:39:14;28.80;35.40
80258;DHT22;69565;37.974;23.708;2023-05-29T11:41:40;28.80;35.40
80258;DHT22;69565;37.974;23.708;2023-05-29T11:44:05;28.90;35.40
80258;DHT22;69565;37.974;23.708;2023-05-29T11:46:31;28.80;35.10
80258;DHT22;69565;37.974;23.708;2023-05-29T11:48:58;28.80;34.90
80258;DHT22;69565;37.974;23.708;2023-05-29T11:51:25;28.80;34.80
80258;DHT22;69565;37.974;23.708;2023-05-29T11:53:51;28.80;34.80
80258;DHT22;69565;37.974;23.708;2023-05-29T11:56:27;28.80;34.80
80258;DHT22;69565;37.974;23.708;2023-05-29T11:58:53;28.80;34.70
80258;DHT22;69565;37.974;23.708;2023-05-29T12:01:26;28.80;34.50
80258;DHT22;69565;37.974;23.708;2023-05-29T12:03:53;28.80;34.40
80258;DHT22;69565;37.974;23.708;2023-05-29T12:06:32;28.70;34.30
80258;DHT22;69565;37.974;23.708;2023-05-29T12:09:02;28.70;34.30
80258;DHT22;69565;37.974;23.708;2023-05-29T12:11:29;28.60;34.20
80258;DHT22;69565;37.974;23.708;2023-05-29T12:13:57;28.60;34.30
80258;DHT22;69565;37.974;23.708;2023-05-29T12:16:23;28.60;34.40
80258;DHT22;69565;37.974;23.708;2023-05-29T12:18:53;28.60;34.80
80258;DHT22;69565;37.974;23.708;2023-05-29T12:21:21;28.60;35.00
80258;DHT22;69565;37.974;23.708;2023-05-29T12:23:49;28.60;35.10
80258;DHT22;69565;37.974;23.708;2023-05-29T12:26:21;28.50;35.20
80258;DHT22;69565;37.974;23.708;2023-05-29T12:28:54;28.50;35.30
80258;DHT22;69565;37.974;23.708;2023-05-29T12:31:29;28.50;35.50
80258;DHT22;69565;37.974;23.708;2023-05-29T12:34:11;28.50;35.60
80258;DHT22;69565;37.974;23.708;2023-05-29T12:36:40;28.40;35.60
80258;DHT22;69565;37.974;23.708;2023-05-29T12:39:07;28.40;35.60
80258;DHT22;69565;37.974;23.708;2023-05-29T12:41:37;28.40;35.60
80258;DHT22;69565;37.974;23.708;2023-05-29T12:44:05;28.40;35.60
80258;DHT22;69565;37.974;23.708;2023-05-29T12:46:42;28.40;35.50
80258;DHT22;69565;37.974;23.708;2023-05-29T12:49:12;28.40;35.40
80258;DHT22;69565;37.974;23.708;2023-05-29T12:51:41;28.40;35.30
80258;DHT22;69565;37.974;23.708;2023-05-29T12:54:13;28.40;35.10
80258;DHT22;69565;37.974;23.708;2023-05-29T12:56:43;28.40;35.10
80258;DHT22;69565;37.974;23.708;2023-05-29T12:59:09;28.40;35.10
80258;DHT22;69565;37.974;23.708;2023-05-29T13:01:38;28.40;35.10
80258;DHT22;69565;37.974;23.708;2023-05-29T13:04:05;28.40;35.10
80258;DHT22;69565;37.974;23.708;2023-05-29T13:06:35;28.40;35.10
80258;DHT22;69565;37.974;23.708;2023-05-29T13:09:01;28.40;35.20
80258;DHT22;69565;37.974;23.708;2023-05-29T13:11:26;28.30;35.30
80258;DHT22;69565;37.974;23.708;2023-05-29T13:13:52;28.30;35.30
80258;DHT22;69565;37.974;23.708;2023-05-29T13:16:18;28.30;35.30
80258;DHT22;69565;37.974;23.708;2023-05-29T13:18:44;28.30;35.30
80258;DHT22;69565;37.974;23.708;2023-05-29T13:21:09;28.30;35.30
80258;DHT22;69565;37.974;23.708;2023-05-29T13:23:36;28.30;35.30
80258;DHT22;69565;37.974;23.708;2023-05-29T13:26:03;28.30;35.30
80258;DHT22;69565;37.974;23.708;2023-05-29T13:28:29;28.30;35.30
80258;DHT22;69565;37.974;23.708;2023-05-29T13:30:55;28.30;35.40
80258;DHT22;69565;37.974;23.708;2023-05-29T13:33:20;28.30;35.40
80258;DHT22;69565;37.974;23.708;2023-05-29T13:35:46;28.30;35.50
80258;DHT22;69565;37.974;23.708;2023-05-29T13:38:12;28.20;35.40
80258;DHT22;69565;37.974;23.708;2023-05-29T13:40:38;28.20;35.30
80258;DHT22;69565;37.974;23.708;2023-05-29T13:43:03;28.30;35.30
80258;DHT22;69565;37.974;23.708;2023-05-29T13:45:29;28.20;35.10
80258;DHT22;69565;37.974;23.708;2023-05-29T13:47:56;28.30;35.10
80258;DHT22;69565;37.974;23.708;2023-05-29T13:50:22;28.30;35.10
80258;DHT22;69565;37.974;23.708;2023-05-29T13:52:49;28.30;35.10
80258;DHT22;69565;37.974;23.708;2023-05-29T13:55:15;28.20;35.00
80258;DHT22;69565;37.974;23.708;2023-05-29T13:57:40;28.30;35.00
80258;DHT22;69565;37.974;23.708;2023-05-29T14:00:09;28.30;35.00
80258;DHT22;69565;37.974;23.708;2023-05-29T14:02:35;28.30;35.00
80258;DHT22;69565;37.974;23.708;2023-05-29T14:05:01;28.30;35.00
80258;DHT22;69565;37.974;23.708;2023-05-29T14:07:26;28.30;35.00
80258;DHT22;69565;37.974;23.708;2023-05-29T14:09:57;28.30;35.00
80258;DHT22;69565;37.974;23.708;2023-05-29T14:12:23;28.20;34.90
80258;DHT22;69565;37.974;23.708;2023-05-29T14:14:48;28.20;34.90
80258;DHT22;69565;37.974;23.708;2023-05-29T14:17:14;28.20;34.90
80258;DHT22;69565;37.974;23.708;2023-05-29T14:20:16;28.20;34.80
80258;DHT22;69565;37.974;23.708;2023-05-29T14:22:42;28.20;35.00
80258;DHT22;69565;37.974;23.708;2023-05-29T14:25:08;28.20;35.20
80258;DHT22;69565;37.974;23.708;2023-05-29T14:27:33;28.20;35.60
80258;DHT22;69565;37.974;23.708;2023-05-29T14:29:59;28.10;35.80
80258;DHT22;69565;37.974;23.708;2023-05-29T14:32:25;28.10;36.00
80258;DHT22;69565;37.974;23.708;2023-05-29T14:34:51;28.10;36.20
80258;DHT22;69565;37.974;23.708;2023-05-29T14:37:18;28.10;36.40
80258;DHT22;69565;37.974;23.708;2023-05-29T14:39:43;28.10;36.70
80258;DHT22;69565;37.974;23.708;2023-05-29T14:42:09;28.00;36.80
80258;DHT22;69565;37.974;23.708;2023-05-29T14:44:35;28.00;37.00
80258;DHT22;69565;37.974;23.708;2023-05-29T14:47:01;28.00;37.20
80258;DHT22;69565;37.974;23.708;2023-05-29T14:49:26;28.00;37.30
80258;DHT22;69565;37.974;23.708;2023-05-29T14:51:57;28.00;37.50
80258;DHT22;69565;37.974;23.708;2023-05-29T14:54:23;27.90;37.70
80258;DHT22;69565;37.974;23.708;2023-05-29T14:56:48;27.90;37.90
80258;DHT22;69565;37.974;23.708;2023-05-29T14:59:14;27.90;37.90
80258;DHT22;69565;37.974;23.708;2023-05-29T15:01:40;27.90;38.00
80258;DHT22;69565;37.974;23.708;2023-05-29T15:04:06;27.90;38.10
80258;DHT22;69565;37.974;23.708;2023-05-29T15:06:32;27.90;38.30
80258;DHT22;69565;37.974;23.708;2023-05-29T15:08:58;27.90;38.30
80258;DHT22;69565;37.974;23.708;2023-05-29T15:11:28;27.90;38.40
80258;DHT22;69565;37.974;23.708;2023-05-29T15:13:54;27.90;38.50
80258;DHT22;69565;37.974;23.708;2023-05-29T15:16:20;28.00;38.60
80258;DHT22;69565;37.974;23.708;2023-05-29T15:18:45;27.90;38.60
80258;DHT22;69565;37.974;23.708;2023-05-29T15:21:11;28.00;38.70
80258;DHT22;69565;37.974;23.708;2023-05-29T15:23:37;28.00;38.60
80258;DHT22;69565;37.974;23.708;2023-05-29T15:26:04;28.00;38.60
80258;DHT22;69565;37.974;23.708;2023-05-29T15:28:30;28.00;38.70
80258;DHT22;69565;37.974;23.708;2023-05-29T15:30:56;28.00;38.70
80258;DHT22;69565;37.974;23.708;2023-05-29T15:33:22;28.00;38.70
80258;DHT22;69565;37.974;23.708;2023-05-29T15:35:48;27.90;38.70
80258;DHT22;69565;37.974;23.708;2023-05-29T15:38:15;27.90;38.70